sensor_id;sensor_type;location;lat;lon;timestamp;pressure;altitude;pressure_sealevel;temperature;humidity
84859;BME280;75115;42.984;23.244;2024-01-07T00:01:13;93904.44;;;2.03;81.95
84859;BME280;75115;42.984;23.244;2024-01-07T00:03:42;93893.72;;;2.08;81.07
84859;BME280;75115;42.984;23.244;2024-01-07T00:06:08;93897.09;;;2.08;81.23
84859;BME280;75115;42.984;23.244;2024-01-07T00:08:34;93893.22;;;2.04;80.91
84859;BME280;75115;42.984;23.244;2024-01-07T00:11:00;93885.53;;;1.96;81.10
84859;BME280;75115;42.984;23.244;2024-01-07T00:13:25;93884.09;;;2.02;80.77
84859;BME280;75115;42.984;23.244;2024-01-07T00:15:51;93883.97;;;2.03;80.84
84859;BME280;75115;42.984;23.244;2024-01-07T00:18:17;93876.94;;;2.05;80.84
84859;BME280;75115;42.984;23.244;2024-01-07T00:20:43;93879.47;;;2.05;80.73
84859;BME280;75115;42.984;23.244;2024-01-07T00:23:08;93875.50;;;2.03;80.74
84859;BME280;75115;42.984;23.244;2024-01-07T00:25:33;93879.44;;;1.97;80.50
84859;BME280;75115;42.984;23.244;2024-01-07T00:27:59;93874.03;;;2.00;80.64
84859;BME280;75115;42.984;23.244;2024-01-07T00:30:24;93873.25;;;1.99;79.92
84859;BME280;75115;42.984;23.244;2024-01-07T00:32:49;93858.69;;;2.00;80.25
84859;BME280;75115;42.984;23.244;2024-01-07T00:35:16;93853.09;;;1.96;79.43
84859;BME280;75115;42.984;23.244;2024-01-07T00:37:42;93856.44;;;1.97;79.29
84859;BME280;75115;42.984;23.244;2024-01-07T00:40:08;93843.81;;;1.95;79.13
84859;BME280;75115;42.984;23.244;2024-01-07T00:42:33;93840.94;;;1.90;80.17
84859;BME280;75115;42.984;23.244;2024-01-07T00:44:59;93833.84;;;1.84;80.73
84859;BME280;75115;42.984;23.244;2024-01-07T00:47:24;93826.38;;;1.91;81.31
84859;BME280;75115;42.984;23.244;2024-01-07T00:49:49;93832.47;;;1.90;79.76
84859;BME280;75115;42.984;23.244;2024-01-07T00:52:15;93816.47;;;1.88;80.88
84859;BME280;75115;42.984;23.244;2024-01-07T00:54:40;93808.63;;;1.89;80.63
84859;BME280;75115;42.984;23.244;2024-01-07T00:57:06;93798.41;;;1.89;80.14
84859;BME280;75115;42.984;23.244;2024-01-07T00:59:31;93794.25;;;1.88;79.67
84859;BME280;75115;42.984;23.244;2024-01-07T01:01:57;93783.72;;;1.91;80.18
84859;BME280;75115;42.984;23.244;2024-01-07T01:04:22;93778.59;;;1.91;79.91
84859;BME280;75115;42.984;23.244;2024-01-07T01:06:47;93779.72;;;1.89;79.83
84859;BME280;75115;42.984;23.244;2024-01-07T01:09:13;93769.34;;;1.90;80.82
84859;BME280;75115;42.984;23.244;2024-01-07T01:11:38;93763.88;;;1.85;80.81
84859;BME280;75115;42.984;23.244;2024-01-07T01:14:04;93764.69;;;1.86;79.92
84859;BME280;75115;42.984;23.244;2024-01-07T01:16:29;93757.66;;;1.88;79.53
84859;BME280;75115;42.984;23.244;2024-01-07T01:18:54;93759.41;;;1.87;80.42
84859;BME280;75115;42.984;23.244;2024-01-07T01:21:20;93759.59;;;1.86;80.35
84859;BME280;75115;42.984;23.244;2024-01-07T01:23:46;93759.59;;;1.86;79.98
84859;BME280;75115;42.984;23.244;2024-01-07T01:26:12;93747.25;;;1.81;79.99
84859;BME280;75115;42.984;23.244;2024-01-07T01:28:37;93744.38;;;1.76;79.86
84859;BME280;75115;42.984;23.244;2024-01-07T01:31:02;93747.25;;;1.73;80.28
84859;BME280;75115;42.984;23.244;2024-01-07T01:33:28;93737.63;;;1.67;81.08
84859;BME280;75115;42.984;23.244;2024-01-07T01:35:54;93732.34;;;1.60;81.96
84859;BME280;75115;42.984;23.244;2024-01-07T01:38:19;93731.53;;;1.60;81.53
84859;BME280;75115;42.984;23.244;2024-01-07T01:40:51;93730.13;;;1.65;81.43
84859;BME280;75115;42.984;23.244;2024-01-07T01:43:25;93711.13;;;1.68;80.69
84859;BME280;75115;42.984;23.244;2024-01-07T01:45:52;93712.25;;;1.65;80.92
84859;BME280;75115;42.984;23.244;2024-01-07T01:48:17;93699.63;;;1.72;81.36
84859;BME280;75115;42.984;23.244;2024-01-07T01:50:43;93697.72;;;1.74;80.75
84859;BME280;75115;42.984;23.244;2024-01-07T01:53:09;93684.63;;;1.77;80.47
84859;BME280;75115;42.984;23.244;2024-01-07T01:55:35;93677.13;;;1.84;79.98
84859;BME280;75115;42.984;23.244;2024-01-07T01:58:00;93668.97;;;1.80;79.89
84859;BME280;75115;42.984;23.244;2024-01-07T02:00:29;93663.53;;;1.83;79.54
84859;BME280;75115;42.984;23.244;2024-01-07T02:02:54;93668.66;;;1.83;80.13
84859;BME280;75115;42.984;23.244;2024-01-07T02:05:20;93665.13;;;1.84;79.54
84859;BME280;75115;42.984;23.244;2024-01-07T02:07:45;93662.59;;;1.84;79.12
84859;BME280;75115;42.984;23.244;2024-01-07T02:10:11;93648.28;;;1.41;81.54
84859;BME280;75115;42.984;23.244;2024-01-07T02:12:37;93647.38;;;1.58;81.31
84859;BME280;75115;42.984;23.244;2024-01-07T02:15:03;93650.34;;;1.37;82.33
84859;BME280;75115;42.984;23.244;2024-01-07T02:17:29;93663.34;;;1.52;81.98
84859;BME280;75115;42.984;23.244;2024-01-07T02:19:54;93669.09;;;1.54;81.02
84859;BME280;75115;42.984;23.244;2024-01-07T02:22:20;93654.84;;;1.52;81.92
84859;BME280;75115;42.984;23.244;2024-01-07T02:24:45;93656.00;;;1.57;81.63
84859;BME280;75115;42.984;23.244;2024-01-07T02:27:11;93666.72;;;1.61;81.39
84859;BME280;75115;42.984;23.244;2024-01-07T02:29:36;93663.19;;;1.62;81.80
84859;BME280;75115;42.984;23.244;2024-01-07T02:32:02;93651.03;;;1.64;81.03
84859;BME280;75115;42.984;23.244;2024-01-07T02:34:27;93639.88;;;1.65;81.38
84859;BME280;75115;42.984;23.244;2024-01-07T02:36:52;93629.97;;;1.70;81.48
84859;BME280;75115;42.984;23.244;2024-01-07T02:39:18;93613.69;;;1.71;81.06
84859;BME280;75115;42.984;23.244;2024-01-07T02:41:43;93606.31;;;1.60;81.98
84859;BME280;75115;42.984;23.244;2024-01-07T02:44:09;93587.03;;;1.65;82.03
84859;BME280;75115;42.984;23.244;2024-01-07T02:46:34;93579.50;;;1.72;81.18
84859;BME280;75115;42.984;23.244;2024-01-07T02:48:59;93580.16;;;1.82;81.50
84859;BME280;75115;42.984;23.244;2024-01-07T02:51:25;93570.56;;;1.84;81.32
84859;BME280;75115;42.984;23.244;2024-01-07T02:53:50;93574.06;;;1.91;82.04
84859;BME280;75115;42.984;23.244;2024-01-07T02:56:15;93564.81;;;1.90;81.50
84859;BME280;75115;42.984;23.244;2024-01-07T02:58:41;93559.06;;;1.80;82.35
84859;BME280;75115;42.984;23.244;2024-01-07T03:01:09;93563.19;;;1.89;81.95
84859;BME280;75115;42.984;23.244;2024-01-07T03:03:35;93558.25;;;1.88;81.53
84859;BME280;75115;42.984;23.244;2024-01-07T03:06:01;93550.91;;;1.77;81.74
84859;BME280;75115;42.984;23.244;2024-01-07T03:08:27;93559.22;;;1.79;81.27
84859;BME280;75115;42.984;23.244;2024-01-07T03:10:53;93564.03;;;1.73;81.26
84859;BME280;75115;42.984;23.244;2024-01-07T03:13:18;93575.34;;;1.71;82.00
84859;BME280;75115;42.984;23.244;2024-01-07T03:15:44;93576.63;;;1.67;82.32
84859;BME280;75115;42.984;23.244;2024-01-07T03:18:09;93570.56;;;1.68;82.79
84859;BME280;75115;42.984;23.244;2024-01-07T03:20:34;93580.16;;;1.74;82.60
84859;BME280;75115;42.984;23.244;2024-01-07T03:23:00;93571.22;;;1.78;83.32
84859;BME280;75115;42.984;23.244;2024-01-07T03:25:26;93579.50;;;1.88;82.77
84859;BME280;75115;42.984;23.244;2024-01-07T03:27:51;93571.84;;;1.72;82.78
84859;BME280;75115;42.984;23.244;2024-01-07T03:30:17;93576.16;;;1.80;82.00
84859;BME280;75115;42.984;23.244;2024-01-07T03:32:42;93581.56;;;1.85;82.79
84859;BME280;75115;42.984;23.244;2024-01-07T03:35:07;93582.53;;;1.84;82.02
84859;BME280;75115;42.984;23.244;2024-01-07T03:37:35;93581.56;;;1.93;82.28
84859;BME280;75115;42.984;23.244;2024-01-07T03:40:01;93580.59;;;2.02;81.70
84859;BME280;75115;42.984;23.244;2024-01-07T03:42:30;93585.88;;;2.00;81.92
84859;BME280;75115;42.984;23.244;2024-01-07T03:44:55;93584.13;;;2.09;81.48
84859;BME280;75115;42.984;23.244;2024-01-07T03:47:20;93578.03;;;2.18;81.27
84859;BME280;75115;42.984;23.244;2024-01-07T03:49:46;93581.06;;;2.22;81.18
84859;BME280;75115;42.984;23.244;2024-01-07T03:52:11;93580.44;;;2.28;81.26
84859;BME280;75115;42.984;23.244;2024-01-07T03:54:37;93578.19;;;2.33;81.37
84859;BME280;75115;42.984;23.244;2024-01-07T03:57:02;93576.72;;;2.39;80.27
84859;BME280;75115;42.984;23.244;2024-01-07T03:59:28;93575.75;;;2.40;81.11
84859;BME280;75115;42.984;23.244;2024-01-07T04:01:54;93573.06;;;2.41;80.84
84859;BME280;75115;42.984;23.244;2024-01-07T04:04:19;93574.31;;;2.45;81.26
84859;BME280;75115;42.984;23.244;2024-01-07T04:06:44;93578.66;;;2.37;81.76
84859;BME280;75115;42.984;23.244;2024-01-07T04:09:10;93577.69;;;2.46;82.86
84859;BME280;75115;42.984;23.244;2024-01-07T04:11:40;93569.19;;;2.54;82.48
84859;BME280;75115;42.984;23.244;2024-01-07T04:14:06;93569.81;;;2.56;82.98
84859;BME280;75115;42.984;23.244;2024-01-07T04:16:31;93560.19;;;2.66;83.00
84859;BME280;75115;42.984;23.244;2024-01-07T04:18:56;93570.84;;;2.78;83.53
84859;BME280;75115;42.984;23.244;2024-01-07T04:21:22;93573.09;;;2.81;84.65
84859;BME280;75115;42.984;23.244;2024-01-07T04:23:47;93580.13;;;2.87;84.69
84859;BME280;75115;42.984;23.244;2024-01-07T04:26:13;93570.84;;;2.78;85.70
84859;BME280;75115;42.984;23.244;2024-01-07T04:28:41;93564.88;;;2.93;85.22
84859;BME280;75115;42.984;23.244;2024-01-07T04:31:07;93563.56;;;2.97;84.78
84859;BME280;75115;42.984;23.244;2024-01-07T04:33:33;93557.44;;;3.07;84.00
84859;BME280;75115;42.984;23.244;2024-01-07T04:35:58;93564.44;;;3.21;84.27
84859;BME280;75115;42.984;23.244;2024-01-07T04:38:24;93564.25;;;3.22;85.17
84859;BME280;75115;42.984;23.244;2024-01-07T04:40:50;93567.03;;;3.13;85.82
84859;BME280;75115;42.984;23.244;2024-01-07T04:43:17;93569.41;;;3.14;84.22
84859;BME280;75115;42.984;23.244;2024-01-07T04:45:43;93575.50;;;3.13;83.71
84859;BME280;75115;42.984;23.244;2024-01-07T04:48:08;93584.16;;;3.12;84.83
84859;BME280;75115;42.984;23.244;2024-01-07T04:50:33;93569.31;;;3.08;84.80
84859;BME280;75115;42.984;23.244;2024-01-07T04:52:59;93582.97;;;3.23;83.40
84859;BME280;75115;42.984;23.244;2024-01-07T04:55:24;93572.25;;;3.19;84.40
84859;BME280;75115;42.984;23.244;2024-01-07T04:57:49;93564.28;;;3.14;84.11
84859;BME280;75115;42.984;23.244;2024-01-07T05:00:15;93565.84;;;3.23;83.36
84859;BME280;75115;42.984;23.244;2024-01-07T05:02:41;93570.91;;;3.32;82.82
84859;BME280;75115;42.984;23.244;2024-01-07T05:05:08;93564.19;;;3.31;83.86
84859;BME280;75115;42.984;23.244;2024-01-07T05:07:34;93555.53;;;3.32;83.57
84859;BME280;75115;42.984;23.244;2024-01-07T05:09:59;93537.47;;;3.33;83.19
84859;BME280;75115;42.984;23.244;2024-01-07T05:12:25;93541.72;;;3.41;83.13
84859;BME280;75115;42.984;23.244;2024-01-07T05:14:51;93525.66;;;3.47;83.62
84859;BME280;75115;42.984;23.244;2024-01-07T05:17:17;93523.56;;;3.50;83.07
84859;BME280;75115;42.984;23.244;2024-01-07T05:19:42;93516.31;;;3.54;83.38
84859;BME280;75115;42.984;23.244;2024-01-07T05:22:07;93511.63;;;3.58;83.24
84859;BME280;75115;42.984;23.244;2024-01-07T05:24:33;93510.78;;;3.65;83.73
84859;BME280;75115;42.984;23.244;2024-01-07T05:26:58;93506.81;;;3.63;82.89
84859;BME280;75115;42.984;23.244;2024-01-07T05:29:24;93506.09;;;3.69;82.69
84859;BME280;75115;42.984;23.244;2024-01-07T05:31:49;93502.47;;;3.63;83.94
84859;BME280;75115;42.984;23.244;2024-01-07T05:34:14;93497.50;;;3.62;83.42
84859;BME280;75115;42.984;23.244;2024-01-07T05:36:40;93492.50;;;3.68;82.86
84859;BME280;75115;42.984;23.244;2024-01-07T05:39:05;93492.44;;;3.77;83.47
84859;BME280;75115;42.984;23.244;2024-01-07T05:41:32;93499.13;;;3.78;83.18
84859;BME280;75115;42.984;23.244;2024-01-07T05:43:57;93496.13;;;3.74;81.91
84859;BME280;75115;42.984;23.244;2024-01-07T05:46:23;93496.22;;;3.81;82.31
84859;BME280;75115;42.984;23.244;2024-01-07T05:48:49;93497.22;;;3.80;83.37
84859;BME280;75115;42.984;23.244;2024-01-07T05:51:15;93503.59;;;3.84;83.00
84859;BME280;75115;42.984;23.244;2024-01-07T05:53:42;93502.09;;;3.89;83.26
84859;BME280;75115;42.984;23.244;2024-01-07T05:56:08;93504.09;;;3.79;83.93
84859;BME280;75115;42.984;23.244;2024-01-07T05:58:33;93508.25;;;3.80;84.19
84859;BME280;75115;42.984;23.244;2024-01-07T06:00:59;93506.31;;;3.82;82.94
84859;BME280;75115;42.984;23.244;2024-01-07T06:03:25;93501.38;;;3.81;83.61
84859;BME280;75115;42.984;23.244;2024-01-07T06:05:51;93514.91;;;3.89;83.56
84859;BME280;75115;42.984;23.244;2024-01-07T06:08:16;93509.59;;;3.91;84.33
84859;BME280;75115;42.984;23.244;2024-01-07T06:10:42;93503.41;;;3.85;83.90
84859;BME280;75115;42.984;23.244;2024-01-07T06:13:08;93507.91;;;3.83;84.05
84859;BME280;75115;42.984;23.244;2024-01-07T06:15:33;93517.66;;;3.88;85.11
84859;BME280;75115;42.984;23.244;2024-01-07T06:17:59;93529.06;;;3.85;84.02
84859;BME280;75115;42.984;23.244;2024-01-07T06:20:24;93527.72;;;3.89;84.42
84859;BME280;75115;42.984;23.244;2024-01-07T06:22:49;93533.31;;;3.93;85.03
84859;BME280;75115;42.984;23.244;2024-01-07T06:25:15;93527.31;;;4.00;84.53
84859;BME280;75115;42.984;23.244;2024-01-07T06:27:41;93524.22;;;4.05;83.54
84859;BME280;75115;42.984;23.244;2024-01-07T06:30:07;93520.78;;;4.13;83.59
84859;BME280;75115;42.984;23.244;2024-01-07T06:32:32;93512.56;;;4.17;82.91
84859;BME280;75115;42.984;23.244;2024-01-07T06:34:58;93517.34;;;4.20;83.26
84859;BME280;75115;42.984;23.244;2024-01-07T06:37:24;93513.09;;;4.28;81.96
84859;BME280;75115;42.984;23.244;2024-01-07T06:39:49;93511.78;;;4.32;81.60
84859;BME280;75115;42.984;23.244;2024-01-07T06:42:14;93517.88;;;4.31;82.43
84859;BME280;75115;42.984;23.244;2024-01-07T06:44:40;93522.50;;;4.35;82.83
84859;BME280;75115;42.984;23.244;2024-01-07T06:47:06;93529.22;;;4.36;81.61
84859;BME280;75115;42.984;23.244;2024-01-07T06:49:31;93523.53;;;4.41;81.27
84859;BME280;75115;42.984;23.244;2024-01-07T06:51:56;93529.84;;;4.38;82.28
84859;BME280;75115;42.984;23.244;2024-01-07T06:54:22;93534.97;;;4.38;80.68
84859;BME280;75115;42.984;23.244;2024-01-07T06:56:47;93530.63;;;4.39;82.09
84859;BME280;75115;42.984;23.244;2024-01-07T06:59:12;93525.94;;;4.42;81.11
84859;BME280;75115;42.984;23.244;2024-01-07T07:01:38;93525.41;;;4.47;82.40
84859;BME280;75115;42.984;23.244;2024-01-07T07:04:04;93533.53;;;4.50;82.30
84859;BME280;75115;42.984;23.244;2024-01-07T07:06:29;93529.91;;;4.45;83.20
84859;BME280;75115;42.984;23.244;2024-01-07T07:08:55;93524.59;;;4.46;82.10
84859;BME280;75115;42.984;23.244;2024-01-07T07:11:20;93530.81;;;4.52;82.35
84859;BME280;75115;42.984;23.244;2024-01-07T07:13:46;93528.84;;;4.54;81.73
84859;BME280;75115;42.984;23.244;2024-01-07T07:16:11;93527.06;;;4.55;82.29
84859;BME280;75115;42.984;23.244;2024-01-07T07:18:37;93531.53;;;4.61;83.05
84859;BME280;75115;42.984;23.244;2024-01-07T07:21:02;93530.72;;;4.60;83.29
84859;BME280;75115;42.984;23.244;2024-01-07T07:23:28;93531.53;;;4.61;82.88
84859;BME280;75115;42.984;23.244;2024-01-07T07:25:53;93531.44;;;4.69;83.49
84859;BME280;75115;42.984;23.244;2024-01-07T07:28:19;93533.91;;;4.77;84.03
84859;BME280;75115;42.984;23.244;2024-01-07T07:30:44;93533.00;;;4.85;84.11
84859;BME280;75115;42.984;23.244;2024-01-07T07:33:10;93532.28;;;4.91;83.71
84859;BME280;75115;42.984;23.244;2024-01-07T07:35:35;93526.78;;;4.94;83.58
84859;BME280;75115;42.984;23.244;2024-01-07T07:38:00;93515.00;;;4.99;84.84
84859;BME280;75115;42.984;23.244;2024-01-07T07:40:26;93524.97;;;5.09;84.90
84859;BME280;75115;42.984;23.244;2024-01-07T07:42:51;93519.91;;;5.16;84.03
84859;BME280;75115;42.984;23.244;2024-01-07T07:45:17;93527.34;;;5.25;84.64
84859;BME280;75115;42.984;23.244;2024-01-07T07:47:44;93519.88;;;5.31;83.88
84859;BME280;75115;42.984;23.244;2024-01-07T07:50:10;93513.56;;;5.33;84.23
84859;BME280;75115;42.984;23.244;2024-01-07T07:52:36;93517.84;;;5.26;83.85
84859;BME280;75115;42.984;23.244;2024-01-07T07:55:01;93517.78;;;5.19;82.15
84859;BME280;75115;42.984;23.244;2024-01-07T07:57:27;93517.00;;;5.19;82.78
84859;BME280;75115;42.984;23.244;2024-01-07T07:59:54;93511.97;;;5.11;84.55
84859;BME280;75115;42.984;23.244;2024-01-07T08:02:19;93516.19;;;5.18;84.32
84859;BME280;75115;42.984;23.244;2024-01-07T08:04:46;93510.69;;;5.21;83.99
84859;BME280;75115;42.984;23.244;2024-01-07T08:07:12;93502.25;;;5.28;82.68
84859;BME280;75115;42.984;23.244;2024-01-07T08:09:37;93508.25;;;5.35;83.31
84859;BME280;75115;42.984;23.244;2024-01-07T08:12:06;93499.97;;;5.39;82.78
84859;BME280;75115;42.984;23.244;2024-01-07T08:14:32;93506.09;;;5.38;81.88
84859;BME280;75115;42.984;23.244;2024-01-07T08:16:58;93507.97;;;5.44;82.50
84859;BME280;75115;42.984;23.244;2024-01-07T08:19:23;93505.63;;;5.49;82.38
84859;BME280;75115;42.984;23.244;2024-01-07T08:21:49;93504.88;;;5.56;82.75
84859;BME280;75115;42.984;23.244;2024-01-07T08:24:14;93506.72;;;5.62;82.82
84859;BME280;75115;42.984;23.244;2024-01-07T08:26:39;93501.03;;;5.66;82.28
84859;BME280;75115;42.984;23.244;2024-01-07T08:29:05;93504.63;;;5.72;82.40
84859;BME280;75115;42.984;23.244;2024-01-07T08:31:31;93501.34;;;5.78;81.75
84859;BME280;75115;42.984;23.244;2024-01-07T08:33:57;93499.56;;;5.79;81.84
84859;BME280;75115;42.984;23.244;2024-01-07T08:36:22;93503.78;;;5.86;81.15
84859;BME280;75115;42.984;23.244;2024-01-07T08:38:48;93507.22;;;5.93;81.10
84859;BME280;75115;42.984;23.244;2024-01-07T08:41:16;93499.31;;;5.95;80.70
84859;BME280;75115;42.984;23.244;2024-01-07T08:43:42;93503.09;;;5.99;81.12
84859;BME280;75115;42.984;23.244;2024-01-07T08:46:07;93500.75;;;6.04;80.82
84859;BME280;75115;42.984;23.244;2024-01-07T08:48:32;93502.41;;;6.12;80.65
84859;BME280;75115;42.984;23.244;2024-01-07T08:50:58;93496.69;;;6.16;81.71
84859;BME280;75115;42.984;23.244;2024-01-07T08:53:23;93487.75;;;6.12;82.29
84859;BME280;75115;42.984;23.244;2024-01-07T08:55:49;93479.31;;;6.25;81.41
84859;BME280;75115;42.984;23.244;2024-01-07T08:58:15;93489.47;;;6.33;81.53
84859;BME280;75115;42.984;23.244;2024-01-07T09:00:41;93491.28;;;6.39;81.62
84859;BME280;75115;42.984;23.244;2024-01-07T09:03:07;93486.19;;;6.46;81.62
84859;BME280;75115;42.984;23.244;2024-01-07T09:05:32;93472.09;;;6.48;81.28
84859;BME280;75115;42.984;23.244;2024-01-07T09:07:58;93486.47;;;6.64;81.85
84859;BME280;75115;42.984;23.244;2024-01-07T09:10:23;93485.94;;;6.75;81.93
84859;BME280;75115;42.984;23.244;2024-01-07T09:12:50;93480.03;;;6.88;81.76
84859;BME280;75115;42.984;23.244;2024-01-07T09:15:18;93486.22;;;7.00;82.01
84859;BME280;75115;42.984;23.244;2024-01-07T09:17:43;93483.47;;;7.15;82.08
84859;BME280;75115;42.984;23.244;2024-01-07T09:20:10;93472.41;;;7.28;82.01
84859;BME280;75115;42.984;23.244;2024-01-07T09:22:35;93481.56;;;7.44;80.89
84859;BME280;75115;42.984;23.244;2024-01-07T09:25:05;93471.06;;;7.59;81.69
84859;BME280;75115;42.984;23.244;2024-01-07T09:27:31;93475.03;;;7.74;80.66
84859;BME280;75115;42.984;23.244;2024-01-07T09:29:57;93470.69;;;7.88;80.41
84859;BME280;75115;42.984;23.244;2024-01-07T09:32:22;93471.25;;;8.04;81.28
84859;BME280;75115;42.984;23.244;2024-01-07T09:34:48;93466.28;;;8.15;79.87
84859;BME280;75115;42.984;23.244;2024-01-07T09:37:13;93472.66;;;8.26;79.73
84859;BME280;75115;42.984;23.244;2024-01-07T09:39:42;93466.09;;;8.43;79.28
84859;BME280;75115;42.984;23.244;2024-01-07T09:42:16;93463.63;;;8.55;78.93
84859;BME280;75115;42.984;23.244;2024-01-07T09:44:42;93472.97;;;8.69;80.15
84859;BME280;75115;42.984;23.244;2024-01-07T09:47:12;93465.78;;;8.78;77.85
84859;BME280;75115;42.984;23.244;2024-01-07T09:49:39;93474.66;;;8.89;77.91
84859;BME280;75115;42.984;23.244;2024-01-07T09:52:05;93472.03;;;9.02;78.20
84859;BME280;75115;42.984;23.244;2024-01-07T09:54:31;93470.41;;;9.14;77.84
84859;BME280;75115;42.984;23.244;2024-01-07T09:57:01;93464.38;;;9.27;77.50
84859;BME280;75115;42.984;23.244;2024-01-07T09:59:28;93466.88;;;9.40;76.49
84859;BME280;75115;42.984;23.244;2024-01-07T10:01:54;93465.22;;;9.53;77.27
84859;BME280;75115;42.984;23.244;2024-01-07T10:04:20;93459.16;;;9.65;76.56
84859;BME280;75115;42.984;23.244;2024-01-07T10:06:46;93450.53;;;9.71;75.35
84859;BME280;75115;42.984;23.244;2024-01-07T10:09:12;93447.84;;;9.85;75.79
84859;BME280;75115;42.984;23.244;2024-01-07T10:11:38;93445.34;;;9.96;75.12
84859;BME280;75115;42.984;23.244;2024-01-07T10:14:04;93443.06;;;10.07;73.53
84859;BME280;75115;42.984;23.244;2024-01-07T10:16:29;93441.34;;;10.19;74.08
84859;BME280;75115;42.984;23.244;2024-01-07T10:18:55;93433.34;;;10.27;73.72
84859;BME280;75115;42.984;23.244;2024-01-07T10:21:20;93418.91;;;10.38;72.71
84859;BME280;75115;42.984;23.244;2024-01-07T10:23:46;93421.56;;;10.49;71.80
84859;BME280;75115;42.984;23.244;2024-01-07T10:26:11;93421.72;;;10.55;71.07
84859;BME280;75115;42.984;23.244;2024-01-07T10:28:37;93408.31;;;10.58;70.03
84859;BME280;75115;42.984;23.244;2024-01-07T10:31:03;93405.22;;;10.67;69.94
84859;BME280;75115;42.984;23.244;2024-01-07T10:33:32;93409.88;;;10.77;69.13
84859;BME280;75115;42.984;23.244;2024-01-07T10:36:02;93400.66;;;10.81;68.93
84859;BME280;75115;42.984;23.244;2024-01-07T10:38:30;93395.38;;;10.88;68.88
84859;BME280;75115;42.984;23.244;2024-01-07T10:40:58;93394.81;;;10.86;69.66
84859;BME280;75115;42.984;23.244;2024-01-07T10:43:26;93393.06;;;10.98;68.23
84859;BME280;75115;42.984;23.244;2024-01-07T10:45:55;93392.34;;;10.91;66.43
84859;BME280;75115;42.984;23.244;2024-01-07T10:48:21;93391.69;;;10.95;67.38
84859;BME280;75115;42.984;23.244;2024-01-07T10:50:47;93387.13;;;11.09;67.68
84859;BME280;75115;42.984;23.244;2024-01-07T10:53:24;93390.38;;;11.05;65.39
84859;BME280;75115;42.984;23.244;2024-01-07T10:56:00;93389.13;;;11.07;66.16
84859;BME280;75115;42.984;23.244;2024-01-07T10:58:31;93386.47;;;11.14;66.02
84859;BME280;75115;42.984;23.244;2024-01-07T11:00:58;93382.72;;;11.10;67.14
84859;BME280;75115;42.984;23.244;2024-01-07T11:03:33;93378.25;;;11.17;66.66
84859;BME280;75115;42.984;23.244;2024-01-07T11:06:41;93382.78;;;11.21;66.66
84859;BME280;75115;42.984;23.244;2024-01-07T11:11:40;93368.09;;;11.27;65.50
84859;BME280;75115;42.984;23.244;2024-01-07T11:14:42;93358.78;;;11.38;66.46
84859;BME280;75115;42.984;23.244;2024-01-07T11:20:07;93359.78;;;11.48;67.28
84859;BME280;75115;42.984;23.244;2024-01-07T11:22:37;93354.94;;;11.52;66.77
84859;BME280;75115;42.984;23.244;2024-01-07T11:25:32;93359.00;;;11.48;65.01
84859;BME280;75115;42.984;23.244;2024-01-07T11:27:59;93361.72;;;11.53;66.20
84859;BME280;75115;42.984;23.244;2024-01-07T11:30:25;93361.03;;;11.58;66.00
84859;BME280;75115;42.984;23.244;2024-01-07T11:33:00;93366.34;;;11.63;65.82
84859;BME280;75115;42.984;23.244;2024-01-07T11:38:10;93356.22;;;11.73;66.19
84859;BME280;75115;42.984;23.244;2024-01-07T11:40:35;93346.81;;;11.48;61.77
84859;BME280;75115;42.984;23.244;2024-01-07T11:43:01;93357.44;;;11.47;62.72
84859;BME280;75115;42.984;23.244;2024-01-07T11:45:26;93354.72;;;11.42;61.89
84859;BME280;75115;42.984;23.244;2024-01-07T11:47:52;93345.97;;;11.24;61.13
84859;BME280;75115;42.984;23.244;2024-01-07T11:50:17;93357.63;;;11.45;61.91
84859;BME280;75115;42.984;23.244;2024-01-07T11:52:42;93349.66;;;11.47;62.70
84859;BME280;75115;42.984;23.244;2024-01-07T11:55:08;93346.22;;;11.23;58.71
84859;BME280;75115;42.984;23.244;2024-01-07T11:57:34;93351.47;;;11.16;59.10
84859;BME280;75115;42.984;23.244;2024-01-07T12:00:01;93358.19;;;10.94;58.87
84859;BME280;75115;42.984;23.244;2024-01-07T12:02:30;93355.75;;;11.11;59.80
84859;BME280;75115;42.984;23.244;2024-01-07T12:04:57;93354.56;;;11.25;59.47
84859;BME280;75115;42.984;23.244;2024-01-07T12:07:23;93350.84;;;11.21;56.87
84859;BME280;75115;42.984;23.244;2024-01-07T12:09:55;93351.78;;;11.38;56.82
84859;BME280;75115;42.984;23.244;2024-01-07T12:12:21;93353.56;;;11.26;57.01
84859;BME280;75115;42.984;23.244;2024-01-07T12:14:46;93354.47;;;11.32;56.98
84859;BME280;75115;42.984;23.244;2024-01-07T12:17:12;93358.06;;;11.31;56.93
84859;BME280;75115;42.984;23.244;2024-01-07T12:19:37;93351.97;;;11.25;56.99
84859;BME280;75115;42.984;23.244;2024-01-07T12:22:06;93361.31;;;11.14;56.48
84859;BME280;75115;42.984;23.244;2024-01-07T12:24:31;93361.19;;;11.09;57.68
84859;BME280;75115;42.984;23.244;2024-01-07T12:27:04;93359.16;;;11.11;57.58
84859;BME280;75115;42.984;23.244;2024-01-07T12:29:29;93366.56;;;11.08;57.61
84859;BME280;75115;42.984;23.244;2024-01-07T12:31:55;93362.84;;;11.04;56.29
84859;BME280;75115;42.984;23.244;2024-01-07T12:34:21;93353.47;;;11.03;56.53
84859;BME280;75115;42.984;23.244;2024-01-07T12:36:49;93358.91;;;11.01;56.75
84859;BME280;75115;42.984;23.244;2024-01-07T12:39:14;93355.63;;;11.06;57.01
84859;BME280;75115;42.984;23.244;2024-01-07T12:41:40;93354.84;;;11.05;57.31
84859;BME280;75115;42.984;23.244;2024-01-07T12:44:05;93361.06;;;11.16;55.48
84859;BME280;75115;42.984;23.244;2024-01-07T12:46:34;93361.91;;;11.28;57.82
84859;BME280;75115;42.984;23.244;2024-01-07T12:48:59;93373.78;;;11.47;57.17
84859;BME280;75115;42.984;23.244;2024-01-07T12:51:25;93363.53;;;11.53;56.27
84859;BME280;75115;42.984;23.244;2024-01-07T12:53:50;93376.28;;;11.66;56.60
84859;BME280;75115;42.984;23.244;2024-01-07T12:56:16;93381.84;;;11.69;57.20
84859;BME280;75115;42.984;23.244;2024-01-07T12:58:41;93376.53;;;11.76;57.70
84859;BME280;75115;42.984;23.244;2024-01-07T13:01:06;93371.53;;;11.63;58.03